createdAt,value
2022-11-15T00:00:59.011Z,100783.06
2022-11-15T00:03:27.940Z,100791.84
2022-11-15T00:05:54.497Z,100800.47
2022-11-15T00:08:21.132Z,100797.75
2022-11-15T00:11:00.905Z,100801.28
2022-11-15T00:13:28.516Z,100785.59
2022-11-15T00:15:59.055Z,100782.16
2022-11-15T00:18:25.883Z,100777.78
2022-11-15T00:20:52.231Z,100776.13
2022-11-15T00:23:18.875Z,100787.38
2022-11-15T00:25:45.339Z,100765.53
2022-11-15T00:28:11.676Z,100773.47
2022-11-15T00:30:38.131Z,100774.31
2022-11-15T00:33:05.718Z,100778.66
2022-11-15T00:35:34.293Z,100785.66
2022-11-15T00:38:01.717Z,100776.00
2022-11-15T00:40:28.184Z,100778.63
2022-11-15T00:42:58.253Z,100784.72
2022-11-15T00:45:25.124Z,100774.31
2022-11-15T00:47:54.382Z,100756.81
2022-11-15T00:50:20.786Z,100769.06
2022-11-15T00:52:47.265Z,100761.25
2022-11-15T00:55:17.925Z,100756.91
2022-11-15T00:57:44.753Z,100755.16
2022-11-15T01:00:11.560Z,100757.69
2022-11-15T01:02:40.809Z,100749.09
2022-11-15T01:05:07.903Z,100742.06
2022-11-15T01:07:34.489Z,100750.84
2022-11-15T01:10:01.024Z,100755.28
2022-11-15T01:12:27.567Z,100751.88
2022-11-15T01:14:53.944Z,100748.31
2022-11-15T01:17:20.628Z,100741.31
2022-11-15T01:19:47.028Z,100745.69
2022-11-15T01:22:13.440Z,100746.56
2022-11-15T01:24:39.995Z,100746.63
2022-11-15T01:27:06.660Z,100745.81
2022-11-15T01:29:33.061Z,100737.03
2022-11-15T01:31:59.446Z,100743.06
2022-11-15T01:34:28.364Z,100736.03
2022-11-15T01:36:54.709Z,100729.06
2022-11-15T01:39:21.111Z,100729.06
2022-11-15T01:41:47.564Z,100723.91
2022-11-15T01:44:43.155Z,100722.16
2022-11-15T01:47:23.700Z,100723.03
2022-11-15T01:49:55.711Z,100721.38
2022-11-15T01:52:25.728Z,100716.19
2022-11-15T01:54:59.818Z,100720.63
2022-11-15T01:57:26.215Z,100715.47
2022-11-15T01:59:52.674Z,100710.25
2022-11-15T02:02:19.100Z,100712.00
2022-11-15T02:04:48.925Z,100709.44
2022-11-15T02:07:22.618Z,100713.84
2022-11-15T02:09:50.083Z,100707.75
2022-11-15T02:12:20.487Z,100698.19
2022-11-15T02:14:53.372Z,100699.97
2022-11-15T02:17:44.336Z,100702.63
2022-11-15T02:20:35.367Z,100685.19
2022-11-15T02:23:22.359Z,100674.75
2022-11-15T02:26:03.694Z,100676.50
2022-11-15T02:28:45.468Z,100666.03
2022-11-15T02:31:29.285Z,100669.59
2022-11-15T02:34:13.880Z,100660.91
2022-11-15T02:37:11.062Z,100664.47
2022-11-15T02:39:49.312Z,100658.38
2022-11-15T02:42:46.741Z,100654.84
2022-11-15T02:45:20.311Z,100654.91
2022-11-15T02:47:50.621Z,100645.34
2022-11-15T02:50:23.319Z,100641.03
2022-11-15T02:52:50.515Z,100636.69
2022-11-15T02:55:49.405Z,100633.22
2022-11-15T02:58:43.255Z,100630.66
2022-11-15T03:01:12.569Z,100623.69
2022-11-15T03:04:01.432Z,100619.38
2022-11-15T03:06:53.745Z,100626.41
2022-11-15T03:09:34.308Z,100628.19
2022-11-15T03:12:08.129Z,100631.69
2022-11-15T03:14:49.509Z,100631.72
2022-11-15T03:17:28.805Z,100637.84
2022-11-15T03:19:57.923Z,100629.97
2022-11-15T03:22:28.884Z,100638.75
2022-11-15T03:24:59.800Z,100632.63
2022-11-15T03:27:32.685Z,100639.69
2022-11-15T03:30:02.026Z,100635.31
2022-11-15T03:32:35.229Z,100625.69
2022-11-15T03:35:05.686Z,100618.72
2022-11-15T03:37:43.610Z,100624.00
2022-11-15T03:40:11.024Z,100629.25
2022-11-15T03:42:48.528Z,100623.13
2022-11-15T03:45:24.203Z,100624.94
2022-11-15T03:47:59.215Z,100630.19
2022-11-15T03:50:26.854Z,100633.72
2022-11-15T03:53:06.629Z,100632.00
2022-11-15T03:55:33.979Z,100621.47
2022-11-15T03:58:01.852Z,100624.16
2022-11-15T04:00:29.390Z,100626.81
2022-11-15T04:02:55.872Z,100621.56
2022-11-15T04:05:22.357Z,100618.13
2022-11-15T04:07:48.728Z,100617.25
2022-11-15T04:10:15.745Z,100628.66
2022-11-15T04:12:48.142Z,100626.97
2022-11-15T04:15:17.469Z,100614.72
2022-11-15T04:17:46.631Z,100611.22
2022-11-15T04:20:42.963Z,100609.56
2022-11-15T04:23:35.802Z,100609.56
2022-11-15T04:26:05.273Z,100609.56
2022-11-15T04:28:31.866Z,100608.72
2022-11-15T04:30:58.276Z,100602.59
2022-11-15T04:33:24.631Z,100606.97
2022-11-15T04:36:10.020Z,100609.63
2022-11-15T04:38:41.874Z,100598.25
2022-11-15T04:41:08.194Z,100599.13
2022-11-15T04:43:34.858Z,100597.38
2022-11-15T04:46:01.412Z,100589.53
2022-11-15T04:48:27.791Z,100603.53
2022-11-15T04:50:54.211Z,100593.91
2022-11-15T04:53:20.806Z,100594.81
2022-11-15T04:55:52.129Z,100599.22
2022-11-15T04:58:18.548Z,100591.34
2022-11-15T05:00:44.943Z,100597.50
2022-11-15T05:03:30.050Z,100601.84
2022-11-15T05:05:57.937Z,100612.38
2022-11-15T05:08:24.400Z,100615.00
2022-11-15T05:10:50.765Z,100610.63
2022-11-15T05:13:17.927Z,100602.75
2022-11-15T05:15:55.339Z,100606.25
2022-11-15T05:18:23.739Z,100618.50
2022-11-15T05:20:50.666Z,100615.88
2022-11-15T05:23:17.069Z,100616.78
2022-11-15T05:25:43.548Z,100622.91
2022-11-15T05:28:09.972Z,100621.16
2022-11-15T05:30:36.388Z,100617.69
2022-11-15T05:33:02.935Z,100617.69
2022-11-15T05:35:39.642Z,100615.97
2022-11-15T05:38:06.291Z,100616.84
2022-11-15T05:40:33.943Z,100622.97
2022-11-15T05:43:02.470Z,100615.09
2022-11-15T05:45:29.803Z,100622.13
2022-11-15T05:47:59.969Z,100620.41
2022-11-15T05:50:26.814Z,100625.63
2022-11-15T05:52:53.345Z,100634.44
2022-11-15T05:55:19.927Z,100624.78
2022-11-15T05:57:48.244Z,100614.28
2022-11-15T06:00:14.801Z,100625.69
2022-11-15T06:02:41.157Z,100616.94
2022-11-15T06:05:07.534Z,100615.19
2022-11-15T06:07:33.963Z,100625.72
2022-11-15T06:10:00.360Z,100632.72
2022-11-15T06:12:26.692Z,100639.75
2022-11-15T06:14:52.996Z,100640.66
2022-11-15T06:17:19.338Z,100635.38
2022-11-15T06:19:45.712Z,100641.53
2022-11-15T06:22:12.044Z,100640.66
2022-11-15T06:24:38.377Z,100641.53
2022-11-15T06:27:04.728Z,100633.66
2022-11-15T06:29:31.138Z,100644.19
2022-11-15T06:31:57.607Z,100646.81
2022-11-15T06:34:23.984Z,100646.81
2022-11-15T06:36:50.306Z,100645.06
2022-11-15T06:39:17.048Z,100644.19
2022-11-15T06:41:43.390Z,100644.19
2022-11-15T06:44:10.067Z,100658.22
2022-11-15T06:46:36.469Z,100654.72
2022-11-15T06:49:06.761Z,100663.50
2022-11-15T06:51:35.837Z,100652.06
2022-11-15T06:54:02.286Z,100652.97
2022-11-15T06:56:31.916Z,100642.44
2022-11-15T06:58:58.320Z,100665.25
2022-11-15T07:01:27.091Z,100665.28
2022-11-15T07:03:53.552Z,100668.78
2022-11-15T07:06:19.981Z,100661.78
2022-11-15T07:08:46.611Z,100665.25
2022-11-15T07:11:13.004Z,100666.16
2022-11-15T07:13:39.382Z,100670.53
2022-11-15T07:16:08.323Z,100668.78
2022-11-15T07:18:39.946Z,100674.03
2022-11-15T07:21:09.120Z,100674.88
2022-11-15T07:23:39.222Z,100677.53
2022-11-15T07:26:06.173Z,100683.66
2022-11-15T07:28:32.822Z,100679.28
2022-11-15T07:31:02.356Z,100679.28
2022-11-15T07:33:28.986Z,100682.78
2022-11-15T07:35:59.809Z,100679.31
2022-11-15T07:38:26.191Z,100684.56
2022-11-15T07:41:00.632Z,100680.19
2022-11-15T07:43:28.917Z,100674.91
2022-11-15T07:45:59.077Z,100654.75
2022-11-15T07:48:27.346Z,100664.38
2022-11-15T07:50:58.445Z,100667.03
2022-11-15T07:53:24.772Z,100672.31
2022-11-15T07:55:51.257Z,100672.28
2022-11-15T07:58:18.683Z,100660.88
2022-11-15T08:00:45.176Z,100667.03
2022-11-15T08:03:14.220Z,100673.19
2022-11-15T08:05:42.193Z,100661.78
2022-11-15T08:08:10.609Z,100661.78
2022-11-15T08:10:40.587Z,100660.91
2022-11-15T08:13:09.728Z,100658.28
2022-11-15T08:15:37.364Z,100662.69
2022-11-15T08:18:15.687Z,100662.66
2022-11-15T08:20:43.130Z,100667.91
2022-11-15T08:23:14.024Z,100660.03
2022-11-15T08:25:40.541Z,100660.03
2022-11-15T08:28:08.654Z,100665.31
2022-11-15T08:30:37.555Z,100658.28
2022-11-15T08:33:04.387Z,100656.56
2022-11-15T08:35:30.718Z,100645.13
2022-11-15T08:37:57.162Z,100643.38
2022-11-15T08:40:25.124Z,100639.88
2022-11-15T08:42:51.557Z,100636.38
2022-11-15T08:45:17.922Z,100636.41
2022-11-15T08:47:48.547Z,100632.88
2022-11-15T08:50:19.578Z,100634.63
2022-11-15T08:52:45.972Z,100626.72
2022-11-15T08:55:12.348Z,100625.88
2022-11-15T08:57:40.775Z,100629.38
2022-11-15T09:00:07.828Z,100626.72
2022-11-15T09:02:34.158Z,100625.84
2022-11-15T09:05:00.594Z,100634.63
2022-11-15T09:07:27.182Z,100628.47
2022-11-15T09:09:53.538Z,100625.81
2022-11-15T09:12:19.982Z,100626.69
2022-11-15T09:14:46.335Z,100617.91
2022-11-15T09:17:12.709Z,100624.91
2022-11-15T09:19:39.406Z,100616.94
2022-11-15T09:22:09.579Z,100625.66
2022-11-15T09:24:36.329Z,100616.81
2022-11-15T09:27:02.864Z,100604.47
2022-11-15T09:29:29.218Z,100614.97
2022-11-15T09:31:55.669Z,100611.44
2022-11-15T09:34:22.066Z,100626.41
2022-11-15T09:36:48.390Z,100608.78
2022-11-15T09:39:14.857Z,100608.72
2022-11-15T09:41:53.065Z,100615.53
2022-11-15T09:44:50.541Z,100603.69
2022-11-15T09:47:50.476Z,100589.34
2022-11-15T09:50:28.006Z,100601.34
2022-11-15T09:52:56.101Z,100600.94
2022-11-15T09:55:36.203Z,100599.47
2022-11-15T09:58:16.675Z,100596.84
2022-11-15T10:00:49.502Z,100588.38
2022-11-15T10:03:23.705Z,100592.78
2022-11-15T10:05:55.407Z,100600.84
2022-11-15T10:08:32.205Z,100608.16
2022-11-15T10:11:37.858Z,100602.91
2022-11-15T10:14:23.020Z,100600.06
2022-11-15T10:17:15.071Z,100582.69
2022-11-15T10:20:00.794Z,100588.91
2022-11-15T10:22:33.280Z,100584.31
2022-11-15T10:25:25.426Z,100581.09
2022-11-15T10:27:55.085Z,100579.59
2022-11-15T10:30:22.355Z,100581.72
2022-11-15T10:32:50.427Z,100574.13
2022-11-15T10:35:23.518Z,100570.19
2022-11-15T10:37:50.079Z,100558.84
2022-11-15T10:40:23.004Z,100542.47
2022-11-15T10:43:06.506Z,100551.38
2022-11-15T10:45:36.666Z,100538.41
2022-11-15T10:48:14.987Z,100529.50
2022-11-15T10:50:44.111Z,100522.28
2022-11-15T10:53:23.649Z,100529.22
2022-11-15T10:55:53.529Z,100511.38
2022-11-15T10:58:35.669Z,100515.69
2022-11-15T11:01:17.777Z,100520.09
2022-11-15T11:03:46.827Z,100512.19
2022-11-15T11:06:19.037Z,100506.34
2022-11-15T11:09:05.523Z,100508.94
2022-11-15T11:11:51.521Z,100519.53
2022-11-15T11:14:24.356Z,100511.66
2022-11-15T11:16:55.730Z,100501.53
2022-11-15T11:20:04.676Z,100501.50
2022-11-15T11:23:11.314Z,100480.19
2022-11-15T11:25:55.630Z,100488.03
2022-11-15T11:28:49.575Z,100499.41
2022-11-15T11:32:11.576Z,100506.47
2022-11-15T11:34:56.348Z,100504.25
2022-11-15T11:37:44.415Z,100501.84
2022-11-15T11:40:33.338Z,100488.13
2022-11-15T11:43:14.397Z,100496.31
2022-11-15T11:45:53.025Z,100485.22
2022-11-15T11:48:37.834Z,100465.88
2022-11-15T11:51:13.296Z,100465.75
2022-11-15T11:53:58.708Z,100471.38
2022-11-15T11:56:33.296Z,100463.38
2022-11-15T11:59:07.820Z,100445.97
2022-11-15T12:01:40.498Z,100445.41
2022-11-15T12:04:16.077Z,100444.75
2022-11-15T12:06:58.760Z,100436.34
2022-11-15T12:09:43.362Z,100432.13
2022-11-15T12:12:49.539Z,100422.88
2022-11-15T12:15:24.859Z,100430.91
2022-11-15T12:17:51.413Z,100420.84
2022-11-15T12:20:20.134Z,100411.41
2022-11-15T12:22:55.854Z,100403.53
2022-11-15T12:25:25.780Z,100401.56
2022-11-15T12:28:02.788Z,100395.59
2022-11-15T12:30:46.622Z,100396.72
2022-11-15T12:33:32.930Z,100386.50
2022-11-15T12:36:11.037Z,100391.13
2022-11-15T12:38:52.466Z,100393.72
2022-11-15T12:41:20.759Z,100381.19
2022-11-15T12:43:49.038Z,100362.97
2022-11-15T12:46:29.558Z,100357.50
2022-11-15T12:49:32.153Z,100369.50
2022-11-15T12:51:58.608Z,100366.66
2022-11-15T12:54:30.188Z,100356.72
2022-11-15T12:57:08.691Z,100347.28
2022-11-15T13:00:02.820Z,100349.78
2022-11-15T13:02:32.129Z,100342.66
2022-11-15T13:05:17.108Z,100332.56
2022-11-15T13:07:43.711Z,100320.06
2022-11-15T13:10:13.286Z,100320.63
2022-11-15T13:12:41.818Z,100327.84
2022-11-15T13:15:14.322Z,100329.97
2022-11-15T13:17:48.825Z,100334.69
2022-11-15T13:20:15.353Z,100318.19
2022-11-15T13:22:51.956Z,100320.00
2022-11-15T13:25:53.946Z,100314.88
2022-11-15T13:28:33.055Z,100308.47
2022-11-15T13:31:24.331Z,100301.25
2022-11-15T13:33:51.428Z,100296.50
2022-11-15T13:36:28.338Z,100293.25
2022-11-15T13:39:00.281Z,100296.19
2022-11-15T13:41:30.266Z,100285.00
2022-11-15T13:43:58.063Z,100287.63
2022-11-15T13:46:26.882Z,100287.75
2022-11-15T13:48:56.697Z,100276.47
2022-11-15T13:51:38.985Z,100279.56
2022-11-15T13:54:17.823Z,100271.81
2022-11-15T13:56:58.267Z,100271.25
2022-11-15T13:59:29.931Z,100273.25
2022-11-15T14:01:58.460Z,100270.84
2022-11-15T14:04:27.334Z,100258.56
2022-11-15T14:06:58.400Z,100255.06
2022-11-15T14:09:34.631Z,100255.06
2022-11-15T14:12:03.219Z,100245.44
2022-11-15T14:14:30.728Z,100247.31
2022-11-15T14:17:00.102Z,100249.19
2022-11-15T14:19:26.552Z,100239.59
2022-11-15T14:22:16.401Z,100237.03
2022-11-15T14:25:03.012Z,100233.59
2022-11-15T14:27:30.107Z,100228.38
2022-11-15T14:29:56.558Z,100216.97
2022-11-15T14:32:26.724Z,100217.00
2022-11-15T14:34:59.814Z,100213.56
2022-11-15T14:37:27.357Z,100220.69
2022-11-15T14:39:56.831Z,100209.31
2022-11-15T14:42:24.044Z,100200.59
2022-11-15T14:44:51.181Z,100192.72
2022-11-15T14:47:18.085Z,100196.41
2022-11-15T14:49:45.006Z,100192.91
2022-11-15T14:52:31.579Z,100184.19
2022-11-15T14:55:00.040Z,100185.13
2022-11-15T14:57:26.517Z,100174.56
2022-11-15T14:59:53.894Z,100174.59
2022-11-15T15:02:29.201Z,100162.31
2022-11-15T15:04:55.648Z,100162.44
2022-11-15T15:07:23.035Z,100168.69
2022-11-15T15:09:49.593Z,100151.13
2022-11-15T15:12:20.448Z,100152.91
2022-11-15T15:14:48.087Z,100152.84
2022-11-15T15:17:15.368Z,100145.78
2022-11-15T15:19:42.408Z,100136.09
2022-11-15T15:22:30.218Z,100134.38
2022-11-15T15:24:56.624Z,100129.94
2022-11-15T15:27:22.953Z,100122.03
2022-11-15T15:29:49.427Z,100116.75
2022-11-15T15:32:15.861Z,100110.63
2022-11-15T15:34:42.255Z,100112.47
2022-11-15T15:37:09.705Z,100106.38
2022-11-15T15:39:36.061Z,100109.00
2022-11-15T15:42:04.836Z,100102.91
2022-11-15T15:44:51.935Z,100101.06
2022-11-15T15:47:32.432Z,100099.28
2022-11-15T15:51:09.123Z,100094.00
2022-11-15T15:54:08.707Z,100097.44
2022-11-15T15:59:58.668Z,100089.69
2022-11-15T16:02:36.290Z,100068.81
2022-11-15T16:05:21.143Z,100087.00
2022-11-15T16:08:05.885Z,100058.19
2022-11-15T16:10:35.404Z,100085.13
2022-11-15T16:13:01.978Z,100079.81
2022-11-15T16:15:31.583Z,100087.78
2022-11-15T16:18:00.269Z,100078.97
2022-11-15T16:20:38.037Z,100080.81
2022-11-15T16:23:09.405Z,100086.13
2022-11-15T16:25:50.688Z,100084.41
2022-11-15T16:28:22.493Z,100074.75
2022-11-15T16:30:55.530Z,100077.34
2022-11-15T16:33:23.192Z,100088.72
2022-11-15T16:35:49.550Z,100076.38
2022-11-15T16:38:16.581Z,100066.75
2022-11-15T16:40:43.379Z,100077.31
2022-11-15T16:43:11.490Z,100062.34
2022-11-15T16:45:38.182Z,100065.81
2022-11-15T16:48:04.867Z,100062.31
2022-11-15T16:50:35.054Z,100069.38
2022-11-15T16:53:01.905Z,100071.97
2022-11-15T16:55:29.519Z,100072.81
2022-11-15T16:57:58.076Z,100071.91
2022-11-15T17:00:25.529Z,100074.63
2022-11-15T17:02:52.519Z,100078.16
2022-11-15T17:05:21.705Z,100067.78
2022-11-15T17:07:50.443Z,100077.47
2022-11-15T17:10:17.246Z,100079.22
2022-11-15T17:12:43.652Z,100052.19
2022-11-15T17:15:12.870Z,100068.72
2022-11-15T17:17:40.406Z,100065.25
2022-11-15T17:20:13.839Z,100067.16
2022-11-15T17:22:40.228Z,100068.13
2022-11-15T17:25:07.077Z,100064.69
2022-11-15T17:27:33.407Z,100053.41
2022-11-15T17:29:59.803Z,100050.88
2022-11-15T17:32:26.258Z,100064.97
2022-11-15T17:34:52.631Z,100059.75
2022-11-15T17:37:21.839Z,100065.09
2022-11-15T17:39:48.223Z,100049.44
2022-11-15T17:42:14.584Z,100058.34
2022-11-15T17:44:41.101Z,100054.94
2022-11-15T17:47:08.443Z,100052.31
2022-11-15T17:49:39.273Z,100047.09
2022-11-15T17:52:05.793Z,100040.94
2022-11-15T17:54:32.125Z,100053.22
2022-11-15T17:56:58.481Z,100041.88
2022-11-15T17:59:24.855Z,100046.34
2022-11-15T18:01:51.442Z,100050.84
2022-11-15T18:04:17.904Z,100047.44
2022-11-15T18:06:44.369Z,100043.94
2022-11-15T18:09:10.933Z,100048.28
2022-11-15T18:11:40.934Z,100031.66
2022-11-15T18:14:12.635Z,100041.34
2022-11-15T18:16:40.218Z,100026.44
2022-11-15T18:19:11.437Z,100029.94
2022-11-15T18:21:56.002Z,100028.22
2022-11-15T18:24:30.518Z,100022.09
2022-11-15T18:26:58.667Z,100024.72
2022-11-15T18:29:25.720Z,100019.53
2022-11-15T18:31:56.371Z,100016.03
2022-11-15T18:34:33.784Z,100023.97
2022-11-15T18:37:02.962Z,100022.22
2022-11-15T18:39:30.152Z,100015.19
2022-11-15T18:41:56.776Z,100024.84
2022-11-15T18:44:23.309Z,100005.59
2022-11-15T18:46:50.959Z,100016.13
2022-11-15T18:49:17.893Z,100011.72
2022-11-15T18:51:44.347Z,100004.75
2022-11-15T18:54:13.913Z,100002.97
2022-11-15T18:56:40.887Z,100007.31
2022-11-15T18:59:08.627Z,100014.31
2022-11-15T19:01:37.932Z,99987.16
2022-11-15T19:04:12.896Z,99996.78
2022-11-15T19:06:43.895Z,100001.16
2022-11-15T19:09:12.235Z,99999.38
2022-11-15T19:11:39.955Z,99993.25
2022-11-15T19:14:07.528Z,99989.75
2022-11-15T19:16:39.192Z,99987.97
2022-11-15T19:19:07.821Z,99984.44
2022-11-15T19:21:34.950Z,99987.09
2022-11-15T19:24:01.872Z,99984.44
2022-11-15T19:26:29.216Z,99984.41
2022-11-15T19:28:59.324Z,99991.41
2022-11-15T19:31:28.171Z,99987.03
2022-11-15T19:33:55.556Z,99989.66
2022-11-15T19:36:32.570Z,100000.16
2022-11-15T19:39:04.929Z,99989.63
2022-11-15T19:41:31.448Z,99985.22
2022-11-15T19:43:57.965Z,99991.41
2022-11-15T19:46:24.603Z,99987.91
2022-11-15T19:48:51.716Z,99987.00
2022-11-15T19:51:23.782Z,99987.88
2022-11-15T19:53:52.466Z,99985.22
2022-11-15T19:56:19.865Z,99972.19
2022-11-15T19:58:46.945Z,99975.63
2022-11-15T20:01:23.454Z,99979.06
2022-11-15T20:03:53.524Z,99979.97
2022-11-15T20:06:25.478Z,99964.19
2022-11-15T20:08:52.767Z,99970.31
2022-11-15T20:11:19.703Z,99966.75
2022-11-15T20:13:46.252Z,99961.50
2022-11-15T20:16:20.907Z,99959.72
2022-11-15T20:18:50.069Z,99958.03
2022-11-15T20:21:17.343Z,99955.41
2022-11-15T20:23:44.270Z,99958.03
2022-11-15T20:26:11.425Z,99944.94
2022-11-15T20:28:39.100Z,99963.44
2022-11-15T20:31:06.324Z,99953.03
2022-11-15T20:33:33.138Z,99940.81
2022-11-15T20:36:04.331Z,99942.63
2022-11-15T20:38:30.988Z,99947.84
2022-11-15T20:41:00.341Z,99955.66
2022-11-15T20:43:27.164Z,99951.16
2022-11-15T20:45:53.567Z,99943.16
2022-11-15T20:48:20.070Z,99930.88
2022-11-15T20:50:47.303Z,99947.38
2022-11-15T20:53:16.365Z,99947.34
2022-11-15T20:55:47.549Z,99948.19
2022-11-15T20:58:15.069Z,99936.75
2022-11-15T21:00:43.084Z,99928.81
2022-11-15T21:03:09.809Z,99925.22
2022-11-15T21:05:41.109Z,99927.88
2022-11-15T21:08:09.156Z,99926.13
2022-11-15T21:10:53.927Z,99916.50
2022-11-15T21:13:22.942Z,99923.50
2022-11-15T21:15:49.493Z,99919.06
2022-11-15T21:18:16.363Z,99924.31
2022-11-15T21:20:43.050Z,99911.13
2022-11-15T21:23:09.501Z,99914.56
2022-11-15T21:25:35.869Z,99915.47
2022-11-15T21:28:02.891Z,99904.03
2022-11-15T21:30:29.672Z,99907.53
2022-11-15T21:32:56.097Z,99904.91
2022-11-15T21:35:23.689Z,99909.19
2022-11-15T21:37:56.179Z,99899.53
2022-11-15T21:40:23.479Z,99893.34
2022-11-15T21:42:49.841Z,99894.19
2022-11-15T21:45:16.563Z,99887.16
2022-11-15T21:47:46.045Z,99890.66
2022-11-15T21:50:13.065Z,99887.09
2022-11-15T21:52:41.738Z,99887.09
2022-11-15T21:55:09.059Z,99895.06
2022-11-15T21:57:35.451Z,99877.59
2022-11-15T22:00:20.153Z,99882.81
2022-11-15T22:02:46.485Z,99888.97
2022-11-15T22:05:12.821Z,99885.44
2022-11-15T22:07:41.834Z,99882.75
2022-11-15T22:10:08.541Z,99874.91
2022-11-15T22:12:34.992Z,99869.63
2022-11-15T22:15:01.422Z,99873.13
2022-11-15T22:17:47.859Z,99863.44
2022-11-15T22:20:42.964Z,99859.91
2022-11-15T22:23:02.104Z,99858.16
2022-11-15T22:25:29.063Z,99854.69
2022-11-15T22:27:55.474Z,99854.63
2022-11-15T22:30:22.779Z,99859.88
2022-11-15T22:32:49.203Z,99842.31
2022-11-15T22:35:16.063Z,99846.72
2022-11-15T22:37:43.972Z,99851.06
2022-11-15T22:40:10.512Z,99844.09
2022-11-15T22:42:36.847Z,99845.00
2022-11-15T22:45:03.652Z,99845.97
2022-11-15T22:47:30.025Z,99840.66
2022-11-15T22:49:58.735Z,99831.03
2022-11-15T22:52:25.144Z,99830.19
2022-11-15T22:54:51.626Z,99829.22
2022-11-15T22:57:18.651Z,99823.13
2022-11-15T22:59:45.033Z,99824.84
2022-11-15T23:02:11.504Z,99825.75
2022-11-15T23:04:40.308Z,99818.72
2022-11-15T23:07:06.774Z,99816.09
2022-11-15T23:09:33.231Z,99816.09
2022-11-15T23:12:18.633Z,99809.91
2022-11-15T23:14:45.132Z,99806.34
2022-11-15T23:17:11.531Z,99807.31
2022-11-15T23:19:38.029Z,99807.28
2022-11-15T23:22:22.797Z,99802.00
2022-11-15T23:24:49.216Z,99798.50
2022-11-15T23:27:19.737Z,99799.41
2022-11-15T23:30:05.444Z,99803.84
2022-11-15T23:32:50.291Z,99796.84
2022-11-15T23:35:17.145Z,99801.19
2022-11-15T23:37:43.536Z,99795.94
2022-11-15T23:40:10.728Z,99787.97
2022-11-15T23:42:44.280Z,99790.59
2022-11-15T23:45:11.176Z,99790.66
2022-11-15T23:47:37.553Z,99786.19
2022-11-15T23:50:04.257Z,99782.69
2022-11-15T23:52:30.801Z,99785.34
2022-11-15T23:54:57.274Z,99779.22
2022-11-15T23:57:23.687Z,99780.00
2022-11-15T23:59:50.033Z,99777.38
